CU-0021 weather

Delicias South Airport
HolguĂ­n, Cuba

Public forecast

Using degrees Celsius for public forecast. Weather courtesy of forecast.io.

Closest aviation weather report (METAR) to Delicias South Airport

Closest report is Frank Pais International Airport, 7.2 nm (13.3 km) NNE. Retrieved 2019/10/15 19:50 UTC (21 minutes ago):

MUHG 151950Z 04008KT 010V080 9000 SCT020 32/24 Q1013

Closest aviation forecast (TAF) to Delicias South Airport

Closest forecast is Frank Pais International Airport, 7.2 nm (13.3 km) NNE. Retrieved 2019/10/15 18:03 UTC (2 hours ago):

TAF MUHG 151700Z 1518/1618 08008KT 9000 SCT018 TEMPO 1518/1524 5000 SHRA SCT018CB BKN018 BECMG 1601/1603 VRB03KT